Portada
METAR-TAF:

METAR-TAF

Aeroports :

Tientsin, Xina

latitud: 39-11N, longitud: 117-21E, altitud: 3 m

Observació

L'informe es va fer fa 23 minuts, a les 00:30 UTC
Vent 6 kt del Oest/Sud-Oest, variant entre Sud/Sud-Oest i Oest
Temperatura 22°C
Humitat 38%
Pressió 1005 hPa
Visibilitat 10 km o més
sense núvols per sota de 1500 mi sense presència de cumulonimbus.

METAR: ZBTJ 170030Z 25003MPS 210V280 CAVOK 22/07 Q1005 NOSIG

Hora: 08:53 (00:53 UTC)

Pronòstic

L'informe es va fer fa 3 hores i 34 minuts, a les 21:19 UTC
Pronòstic vàlid del 17 a les 00 UTC al 17 a les 24 UTC
Vent 6 kt del Sud/Sud-Est
Visibilitat: 5000 m
calitja

TAF: ZBTJ 162119Z 1700/1724 16003MPS 5000 HZ NSC TX30/1707Z TN15/1721Z

Observacions i pronòstics meteorològics de més de 4000 aeroports (METAR i TAF).

Les estacions disponibles són els punts grocs i vermells al mapa.

Posi el ratolí al punt desitjat per veure el nom de l'estació.

Feu clic per veure les observacions i els pronòstics meteorològics.

Per canviar el mapa: feu clic els botons verds amb una creu de color negre per apropar; al botó verd amb un guió per allunyar la imatge; o en les fletxes verdes per a mapes adjacents.


METAR-TAF: